sensor_id;sensor_type;location;lat;lon;timestamp;pressure;altitude;pressure_sealevel;temperature;humidity
19005;BME280;9635;52.078;8.648;2023-06-01T00:03:43;101047.59;;;12.71;63.05
19005;BME280;9635;52.078;8.648;2023-06-01T00:08:48;101050.66;;;12.55;63.33
19005;BME280;9635;52.078;8.648;2023-06-01T00:13:51;101059.06;;;12.39;63.59
19005;BME280;9635;52.078;8.648;2023-06-01T00:18:54;101054.31;;;12.32;63.61
19005;BME280;9635;52.078;8.648;2023-06-01T00:23:59;101057.03;;;12.43;63.26
19005;BME280;9635;52.078;8.648;2023-06-01T00:29:03;101058.09;;;12.29;63.11
19005;BME280;9635;52.078;8.648;2023-06-01T00:34:06;101047.63;;;12.25;63.42
19005;BME280;9635;52.078;8.648;2023-06-01T00:39:10;101052.28;;;12.23;63.06
19005;BME280;9635;52.078;8.648;2023-06-01T00:44:13;101053.25;;;12.10;63.53
19005;BME280;9635;52.078;8.648;2023-06-01T00:49:16;101054.56;;;12.05;63.62
19005;BME280;9635;52.078;8.648;2023-06-01T00:54:21;101046.00;;;12.00;63.38
19005;BME280;9635;52.078;8.648;2023-06-01T00:59:24;101048.59;;;12.12;63.36
19005;BME280;9635;52.078;8.648;2023-06-01T01:04:27;101038.41;;;12.05;63.11
19005;BME280;9635;52.078;8.648;2023-06-01T01:09:36;101047.25;;;12.07;63.36
19005;BME280;9635;52.078;8.648;2023-06-01T01:14:47;101038.56;;;12.14;63.12
19005;BME280;9635;52.078;8.648;2023-06-01T01:19:59;101038.94;;;12.10;63.27
19005;BME280;9635;52.078;8.648;2023-06-01T01:25:21;101034.91;;;12.15;62.99
19005;BME280;9635;52.078;8.648;2023-06-01T01:30:31;101027.94;;;12.24;62.85
19005;BME280;9635;52.078;8.648;2023-06-01T01:35:36;101024.06;;;11.93;63.72
19005;BME280;9635;52.078;8.648;2023-06-01T01:40:40;101036.91;;;12.01;63.66
19005;BME280;9635;52.078;8.648;2023-06-01T01:45:46;101029.22;;;11.96;63.65
19005;BME280;9635;52.078;8.648;2023-06-01T01:50:54;101014.94;;;12.07;63.42
19005;BME280;9635;52.078;8.648;2023-06-01T01:55:59;101018.72;;;12.04;63.67
19005;BME280;9635;52.078;8.648;2023-06-01T02:01:04;101019.31;;;12.08;63.62
19005;BME280;9635;52.078;8.648;2023-06-01T02:06:07;101017.50;;;12.20;63.49
19005;BME280;9635;52.078;8.648;2023-06-01T02:11:10;101018.59;;;12.06;63.87
19005;BME280;9635;52.078;8.648;2023-06-01T02:16:14;101020.19;;;12.08;63.98
19005;BME280;9635;52.078;8.648;2023-06-01T02:21:18;101017.88;;;12.15;63.70
19005;BME280;9635;52.078;8.648;2023-06-01T02:26:21;101012.16;;;12.31;63.58
19005;BME280;9635;52.078;8.648;2023-06-01T02:31:25;101016.34;;;12.35;63.02
19005;BME280;9635;52.078;8.648;2023-06-01T02:36:29;101014.56;;;12.23;62.94
19005;BME280;9635;52.078;8.648;2023-06-01T02:41:34;101015.53;;;12.10;62.61
19005;BME280;9635;52.078;8.648;2023-06-01T02:46:38;101020.41;;;11.94;63.07
19005;BME280;9635;52.078;8.648;2023-06-01T02:51:41;101016.94;;;11.92;63.06
19005;BME280;9635;52.078;8.648;2023-06-01T02:56:52;101012.38;;;11.81;63.68
19005;BME280;9635;52.078;8.648;2023-06-01T03:02:00;101016.47;;;11.98;63.48
19005;BME280;9635;52.078;8.648;2023-06-01T03:07:04;101016.84;;;11.93;63.20
19005;BME280;9635;52.078;8.648;2023-06-01T03:12:11;101016.38;;;12.00;62.97
19005;BME280;9635;52.078;8.648;2023-06-01T03:17:16;101016.97;;;12.03;63.20
19005;BME280;9635;52.078;8.648;2023-06-01T03:22:19;101011.06;;;11.87;63.61
19005;BME280;9635;52.078;8.648;2023-06-01T03:27:22;101009.38;;;11.97;63.43
19005;BME280;9635;52.078;8.648;2023-06-01T03:32:26;101002.78;;;12.01;63.29
19005;BME280;9635;52.078;8.648;2023-06-01T03:37:31;100999.03;;;12.15;63.16
19005;BME280;9635;52.078;8.648;2023-06-01T03:42:35;101006.59;;;11.99;63.22
19005;BME280;9635;52.078;8.648;2023-06-01T03:47:39;101009.50;;;11.95;63.45
19005;BME280;9635;52.078;8.648;2023-06-01T03:52:42;101006.53;;;11.87;63.01
19005;BME280;9635;52.078;8.648;2023-06-01T03:57:46;101015.88;;;12.06;63.09
19005;BME280;9635;52.078;8.648;2023-06-01T04:02:51;101015.88;;;11.94;62.52
19005;BME280;9635;52.078;8.648;2023-06-01T04:07:55;101000.16;;;11.77;63.21
19005;BME280;9635;52.078;8.648;2023-06-01T04:12:58;101005.31;;;11.80;62.92
19005;BME280;9635;52.078;8.648;2023-06-01T04:18:05;101003.69;;;11.78;62.60
19005;BME280;9635;52.078;8.648;2023-06-01T04:23:28;101001.75;;;11.80;62.72
19005;BME280;9635;52.078;8.648;2023-06-01T04:28:32;101001.28;;;11.86;62.51
19005;BME280;9635;52.078;8.648;2023-06-01T04:33:37;101002.19;;;12.09;61.96
19005;BME280;9635;52.078;8.648;2023-06-01T04:38:42;100997.06;;;12.17;61.33
19005;BME280;9635;52.078;8.648;2023-06-01T04:43:45;101000.47;;;12.08;61.32
19005;BME280;9635;52.078;8.648;2023-06-01T04:48:54;101003.69;;;12.24;61.16
19005;BME280;9635;52.078;8.648;2023-06-01T04:53:59;101001.09;;;12.11;61.27
19005;BME280;9635;52.078;8.648;2023-06-01T04:59:03;100995.03;;;12.32;60.68
19005;BME280;9635;52.078;8.648;2023-06-01T05:04:09;101000.28;;;12.33;60.61
19005;BME280;9635;52.078;8.648;2023-06-01T05:09:12;101003.50;;;12.38;60.21
19005;BME280;9635;52.078;8.648;2023-06-01T05:14:16;100990.50;;;12.32;60.53
19005;BME280;9635;52.078;8.648;2023-06-01T05:19:21;100999.81;;;12.39;60.54
19005;BME280;9635;52.078;8.648;2023-06-01T05:24:27;101008.13;;;12.48;60.70
19005;BME280;9635;52.078;8.648;2023-06-01T05:29:30;100998.84;;;12.63;60.34
19005;BME280;9635;52.078;8.648;2023-06-01T05:34:34;100997.47;;;12.80;60.19
19005;BME280;9635;52.078;8.648;2023-06-01T05:39:38;100998.91;;;12.16;61.26
19005;BME280;9635;52.078;8.648;2023-06-01T05:44:42;100999.69;;;12.64;61.19
19005;BME280;9635;52.078;8.648;2023-06-01T05:49:46;101003.25;;;12.64;60.86
19005;BME280;9635;52.078;8.648;2023-06-01T05:54:49;101001.28;;;12.66;60.54
19005;BME280;9635;52.078;8.648;2023-06-01T05:59:55;101009.03;;;12.71;61.05
19005;BME280;9635;52.078;8.648;2023-06-01T06:04:59;101016.00;;;12.73;60.81
19005;BME280;9635;52.078;8.648;2023-06-01T06:10:03;101019.41;;;12.30;61.09
19005;BME280;9635;52.078;8.648;2023-06-01T06:15:07;101015.03;;;12.52;61.48
19005;BME280;9635;52.078;8.648;2023-06-01T06:20:12;101008.28;;;12.57;61.00
19005;BME280;9635;52.078;8.648;2023-06-01T06:25:17;101017.09;;;12.82;60.19
19005;BME280;9635;52.078;8.648;2023-06-01T06:30:20;101013.78;;;12.90;60.41
19005;BME280;9635;52.078;8.648;2023-06-01T06:35:24;101018.41;;;13.10;60.44
19005;BME280;9635;52.078;8.648;2023-06-01T06:40:27;101018.31;;;12.78;60.15
19005;BME280;9635;52.078;8.648;2023-06-01T06:45:30;101022.50;;;12.48;61.85
19005;BME280;9635;52.078;8.648;2023-06-01T06:50:34;101022.59;;;12.69;61.71
19005;BME280;9635;52.078;8.648;2023-06-01T06:55:38;101031.63;;;11.88;63.99
19005;BME280;9635;52.078;8.648;2023-06-01T07:00:41;101026.34;;;12.22;63.13
19005;BME280;9635;52.078;8.648;2023-06-01T07:05:46;101015.88;;;12.64;62.59
19005;BME280;9635;52.078;8.648;2023-06-01T07:10:49;101030.94;;;12.89;61.85
19005;BME280;9635;52.078;8.648;2023-06-01T07:15:52;101019.91;;;12.80;61.60
19005;BME280;9635;52.078;8.648;2023-06-01T07:20:56;101017.56;;;12.42;63.31
19005;BME280;9635;52.078;8.648;2023-06-01T07:26:00;101019.31;;;12.66;62.11
19005;BME280;9635;52.078;8.648;2023-06-01T07:31:02;101013.63;;;13.02;62.21
19005;BME280;9635;52.078;8.648;2023-06-01T07:36:07;101015.53;;;13.45;61.63
19005;BME280;9635;52.078;8.648;2023-06-01T07:41:10;101013.75;;;13.67;59.91
19005;BME280;9635;52.078;8.648;2023-06-01T07:46:13;101016.47;;;12.45;62.87
19005;BME280;9635;52.078;8.648;2023-06-01T07:51:17;101025.38;;;13.24;61.66
19005;BME280;9635;52.078;8.648;2023-06-01T07:56:20;101022.19;;;13.19;62.04
19005;BME280;9635;52.078;8.648;2023-06-01T08:01:28;101022.03;;;13.43;61.25
19005;BME280;9635;52.078;8.648;2023-06-01T08:06:32;101019.81;;;13.80;60.15
19005;BME280;9635;52.078;8.648;2023-06-01T08:11:37;101024.31;;;13.91;59.17
19005;BME280;9635;52.078;8.648;2023-06-01T08:16:41;101023.25;;;13.50;60.11
19005;BME280;9635;52.078;8.648;2023-06-01T08:21:45;101029.69;;;13.04;62.68
19005;BME280;9635;52.078;8.648;2023-06-01T08:26:48;101025.22;;;13.48;61.02
19005;BME280;9635;52.078;8.648;2023-06-01T08:31:52;101023.63;;;13.78;60.51
19005;BME280;9635;52.078;8.648;2023-06-01T08:36:56;101020.81;;;13.24;61.67
19005;BME280;9635;52.078;8.648;2023-06-01T08:42:07;101020.25;;;12.31;64.71
19005;BME280;9635;52.078;8.648;2023-06-01T08:47:13;101008.44;;;13.33;63.08
19005;BME280;9635;52.078;8.648;2023-06-01T08:52:19;101012.63;;;13.37;62.51
19005;BME280;9635;52.078;8.648;2023-06-01T08:57:23;101011.84;;;12.92;64.55
19005;BME280;9635;52.078;8.648;2023-06-01T09:02:26;101015.91;;;13.30;63.28
19005;BME280;9635;52.078;8.648;2023-06-01T09:07:31;101012.25;;;14.16;61.15
19005;BME280;9635;52.078;8.648;2023-06-01T09:12:37;101006.47;;;14.21;60.18
19005;BME280;9635;52.078;8.648;2023-06-01T09:17:43;101003.81;;;14.51;59.97
19005;BME280;9635;52.078;8.648;2023-06-01T09:22:49;100993.81;;;14.73;58.88
19005;BME280;9635;52.078;8.648;2023-06-01T09:27:53;100983.25;;;13.76;61.87
19005;BME280;9635;52.078;8.648;2023-06-01T09:33:07;100992.34;;;13.43;62.75
19005;BME280;9635;52.078;8.648;2023-06-01T09:38:20;100987.53;;;13.46;62.83
19005;BME280;9635;52.078;8.648;2023-06-01T09:43:23;100992.78;;;13.59;62.82
19005;BME280;9635;52.078;8.648;2023-06-01T09:48:26;100987.69;;;13.45;62.21
19005;BME280;9635;52.078;8.648;2023-06-01T09:53:41;100971.09;;;14.33;61.30
19005;BME280;9635;52.078;8.648;2023-06-01T09:58:44;100971.09;;;14.33;60.10
19005;BME280;9635;52.078;8.648;2023-06-01T10:03:47;100973.44;;;14.17;61.11
19005;BME280;9635;52.078;8.648;2023-06-01T10:08:56;100967.53;;;13.60;62.70
19005;BME280;9635;52.078;8.648;2023-06-01T10:13:59;100968.81;;;13.45;64.02
19005;BME280;9635;52.078;8.648;2023-06-01T10:19:03;100968.44;;;14.12;62.28
19005;BME280;9635;52.078;8.648;2023-06-01T10:24:08;100959.66;;;14.20;61.33
19005;BME280;9635;52.078;8.648;2023-06-01T10:29:12;100954.88;;;14.54;59.81
19005;BME280;9635;52.078;8.648;2023-06-01T10:34:36;100963.50;;;14.89;59.73
19005;BME280;9635;52.078;8.648;2023-06-01T10:39:41;100956.19;;;15.20;59.34
19005;BME280;9635;52.078;8.648;2023-06-01T10:44:48;100955.03;;;14.32;60.82
19005;BME280;9635;52.078;8.648;2023-06-01T10:50:09;100964.25;;;14.29;61.74
19005;BME280;9635;52.078;8.648;2023-06-01T10:55:22;100950.78;;;15.49;59.12
19005;BME280;9635;52.078;8.648;2023-06-01T11:00:27;100947.50;;;15.94;57.19
19005;BME280;9635;52.078;8.648;2023-06-01T11:05:36;100957.09;;;15.50;57.52
19005;BME280;9635;52.078;8.648;2023-06-01T11:10:57;100957.50;;;15.64;57.22
19005;BME280;9635;52.078;8.648;2023-06-01T11:16:27;100954.63;;;15.85;57.24
19005;BME280;9635;52.078;8.648;2023-06-01T11:21:32;100964.19;;;14.20;61.77
19005;BME280;9635;52.078;8.648;2023-06-01T11:26:40;100946.59;;;14.87;59.99
19005;BME280;9635;52.078;8.648;2023-06-01T11:31:46;100948.38;;;15.46;59.15
19005;BME280;9635;52.078;8.648;2023-06-01T11:36:49;100946.94;;;15.52;58.17
19005;BME280;9635;52.078;8.648;2023-06-01T11:42:06;100939.91;;;15.00;60.13
19005;BME280;9635;52.078;8.648;2023-06-01T11:47:10;100943.81;;;15.56;58.69
19005;BME280;9635;52.078;8.648;2023-06-01T11:52:14;100943.78;;;15.66;57.67
19005;BME280;9635;52.078;8.648;2023-06-01T11:57:19;100937.78;;;15.82;56.87
19005;BME280;9635;52.078;8.648;2023-06-01T12:02:23;100944.78;;;15.26;58.32
19005;BME280;9635;52.078;8.648;2023-06-01T12:07:27;100937.63;;;15.93;57.16
19005;BME280;9635;52.078;8.648;2023-06-01T12:12:32;100933.22;;;15.82;56.75
19005;BME280;9635;52.078;8.648;2023-06-01T12:17:47;100927.09;;;16.00;57.49
19005;BME280;9635;52.078;8.648;2023-06-01T12:22:54;100930.09;;;14.49;61.19
19005;BME280;9635;52.078;8.648;2023-06-01T12:28:05;100925.44;;;15.40;59.57
19005;BME280;9635;52.078;8.648;2023-06-01T12:33:08;100921.72;;;15.51;58.72
19005;BME280;9635;52.078;8.648;2023-06-01T12:38:12;100926.88;;;14.65;60.82
19005;BME280;9635;52.078;8.648;2023-06-01T12:43:19;100933.28;;;15.53;58.52
19005;BME280;9635;52.078;8.648;2023-06-01T12:48:31;100929.28;;;15.28;58.65
19005;BME280;9635;52.078;8.648;2023-06-01T12:53:35;100921.53;;;14.44;60.84
19005;BME280;9635;52.078;8.648;2023-06-01T12:58:40;100924.22;;;14.85;61.02
19005;BME280;9635;52.078;8.648;2023-06-01T13:03:43;100921.72;;;15.80;58.20
19005;BME280;9635;52.078;8.648;2023-06-01T13:08:46;100920.47;;;14.66;61.09
19005;BME280;9635;52.078;8.648;2023-06-01T13:13:51;100913.13;;;15.85;57.50
19005;BME280;9635;52.078;8.648;2023-06-01T13:18:54;100910.47;;;16.12;56.98
19005;BME280;9635;52.078;8.648;2023-06-01T13:23:56;100894.88;;;15.97;57.11
19005;BME280;9635;52.078;8.648;2023-06-01T13:29:01;100900.50;;;15.56;57.91
19005;BME280;9635;52.078;8.648;2023-06-01T13:34:07;100901.69;;;16.01;57.01
19005;BME280;9635;52.078;8.648;2023-06-01T13:39:10;100905.53;;;15.98;56.24
19005;BME280;9635;52.078;8.648;2023-06-01T13:44:15;100895.84;;;15.96;57.00
19005;BME280;9635;52.078;8.648;2023-06-01T13:49:19;100896.63;;;15.68;58.04
19005;BME280;9635;52.078;8.648;2023-06-01T13:54:22;100888.13;;;16.01;58.05
19005;BME280;9635;52.078;8.648;2023-06-01T13:59:26;100891.97;;;16.08;56.37
19005;BME280;9635;52.078;8.648;2023-06-01T14:04:29;100889.84;;;16.02;56.69
19005;BME280;9635;52.078;8.648;2023-06-01T14:09:32;100885.84;;;16.06;57.73
19005;BME280;9635;52.078;8.648;2023-06-01T14:14:36;100868.34;;;15.90;56.98
19005;BME280;9635;52.078;8.648;2023-06-01T14:19:39;100882.13;;;15.50;58.01
19005;BME280;9635;52.078;8.648;2023-06-01T14:24:42;100873.97;;;16.07;57.35
19005;BME280;9635;52.078;8.648;2023-06-01T14:29:46;100867.31;;;16.01;57.77
19005;BME280;9635;52.078;8.648;2023-06-01T14:34:49;100867.97;;;15.66;58.59
19005;BME280;9635;52.078;8.648;2023-06-01T14:39:52;100868.88;;;15.47;58.99
19005;BME280;9635;52.078;8.648;2023-06-01T14:44:57;100863.88;;;14.94;60.35
19005;BME280;9635;52.078;8.648;2023-06-01T14:50:07;100865.88;;;15.01;60.69
19005;BME280;9635;52.078;8.648;2023-06-01T14:55:10;100852.03;;;15.63;59.55
19005;BME280;9635;52.078;8.648;2023-06-01T15:00:18;100850.25;;;15.91;59.21
19005;BME280;9635;52.078;8.648;2023-06-01T15:05:21;100854.22;;;15.97;59.05
19005;BME280;9635;52.078;8.648;2023-06-01T15:10:24;100847.50;;;16.01;58.83
19005;BME280;9635;52.078;8.648;2023-06-01T15:15:28;100848.69;;;15.88;57.82
19005;BME280;9635;52.078;8.648;2023-06-01T15:20:31;100842.69;;;16.22;57.40
19005;BME280;9635;52.078;8.648;2023-06-01T15:25:34;100841.97;;;16.57;56.70
19005;BME280;9635;52.078;8.648;2023-06-01T15:30:38;100838.13;;;16.50;55.09
19005;BME280;9635;52.078;8.648;2023-06-01T15:35:41;100831.78;;;16.04;56.52
19005;BME280;9635;52.078;8.648;2023-06-01T15:40:46;100824.03;;;16.19;55.50
19005;BME280;9635;52.078;8.648;2023-06-01T15:45:50;100824.56;;;15.58;55.36
19005;BME280;9635;52.078;8.648;2023-06-01T15:50:53;100812.66;;;15.68;53.80
19005;BME280;9635;52.078;8.648;2023-06-01T15:55:56;100816.59;;;14.59;56.52
19005;BME280;9635;52.078;8.648;2023-06-01T16:01:00;100803.47;;;16.26;53.92
19005;BME280;9635;52.078;8.648;2023-06-01T16:06:19;100807.09;;;16.80;50.38
19005;BME280;9635;52.078;8.648;2023-06-01T16:11:22;100797.16;;;16.35;51.61
19005;BME280;9635;52.078;8.648;2023-06-01T16:16:26;100792.72;;;15.69;52.88
19005;BME280;9635;52.078;8.648;2023-06-01T16:21:29;100793.69;;;16.43;51.54
19005;BME280;9635;52.078;8.648;2023-06-01T16:26:33;100790.97;;;16.15;52.14
19005;BME280;9635;52.078;8.648;2023-06-01T16:31:37;100787.22;;;15.89;52.42
19005;BME280;9635;52.078;8.648;2023-06-01T16:36:40;100786.94;;;16.20;53.05
19005;BME280;9635;52.078;8.648;2023-06-01T16:41:43;100776.59;;;15.78;53.35
19005;BME280;9635;52.078;8.648;2023-06-01T16:46:47;100774.78;;;15.96;53.59
19005;BME280;9635;52.078;8.648;2023-06-01T16:51:50;100773.34;;;16.02;53.52
19005;BME280;9635;52.078;8.648;2023-06-01T16:56:53;100761.75;;;15.35;53.94
19005;BME280;9635;52.078;8.648;2023-06-01T17:01:57;100770.41;;;15.48;54.38
19005;BME280;9635;52.078;8.648;2023-06-01T17:07:01;100764.41;;;15.91;53.63
19005;BME280;9635;52.078;8.648;2023-06-01T17:12:04;100758.50;;;15.96;52.62
19005;BME280;9635;52.078;8.648;2023-06-01T17:17:10;100751.50;;;15.76;52.90
19005;BME280;9635;52.078;8.648;2023-06-01T17:22:13;100749.81;;;15.75;52.40
19005;BME280;9635;52.078;8.648;2023-06-01T17:27:16;100753.38;;;15.65;53.28
19005;BME280;9635;52.078;8.648;2023-06-01T17:32:20;100752.47;;;15.47;53.69
19005;BME280;9635;52.078;8.648;2023-06-01T17:37:25;100753.22;;;15.20;54.75
19005;BME280;9635;52.078;8.648;2023-06-01T17:42:28;100750.06;;;15.24;54.40
19005;BME280;9635;52.078;8.648;2023-06-01T17:47:32;100749.94;;;15.16;54.64
19005;BME280;9635;52.078;8.648;2023-06-01T17:52:35;100755.69;;;14.65;55.13
19005;BME280;9635;52.078;8.648;2023-06-01T17:57:38;100758.69;;;14.71;54.79
19005;BME280;9635;52.078;8.648;2023-06-01T18:02:43;100762.47;;;14.40;54.79
19005;BME280;9635;52.078;8.648;2023-06-01T18:07:46;100775.78;;;14.22;55.84
19005;BME280;9635;52.078;8.648;2023-06-01T18:12:48;100785.00;;;14.09;56.25
19005;BME280;9635;52.078;8.648;2023-06-01T18:17:53;100778.75;;;14.09;56.33
19005;BME280;9635;52.078;8.648;2023-06-01T18:22:56;100783.91;;;14.22;56.33
19005;BME280;9635;52.078;8.648;2023-06-01T18:28:00;100779.13;;;13.94;56.52
19005;BME280;9635;52.078;8.648;2023-06-01T18:33:04;100786.59;;;13.81;56.26
19005;BME280;9635;52.078;8.648;2023-06-01T18:38:07;100776.09;;;13.57;56.03
19005;BME280;9635;52.078;8.648;2023-06-01T18:43:10;100775.06;;;13.69;55.41
19005;BME280;9635;52.078;8.648;2023-06-01T18:48:19;100780.66;;;13.57;54.52
19005;BME280;9635;52.078;8.648;2023-06-01T18:53:23;100784.81;;;13.40;55.42
19005;BME280;9635;52.078;8.648;2023-06-01T18:58:26;100782.50;;;13.35;55.18
19005;BME280;9635;52.078;8.648;2023-06-01T19:03:30;100773.91;;;13.41;55.30
19005;BME280;9635;52.078;8.648;2023-06-01T19:08:33;100772.81;;;13.33;55.41
19005;BME280;9635;52.078;8.648;2023-06-01T19:13:37;100776.97;;;13.16;55.87
19005;BME280;9635;52.078;8.648;2023-06-01T19:18:48;100773.09;;;13.09;56.12
19005;BME280;9635;52.078;8.648;2023-06-01T19:23:52;100772.81;;;12.91;56.71
19005;BME280;9635;52.078;8.648;2023-06-01T19:28:57;100777.88;;;13.05;56.77
19005;BME280;9635;52.078;8.648;2023-06-01T19:34:05;100785.28;;;12.71;57.19
19005;BME280;9635;52.078;8.648;2023-06-01T19:39:09;100786.09;;;12.82;57.29
19005;BME280;9635;52.078;8.648;2023-06-01T19:44:16;100774.88;;;12.98;56.75
19005;BME280;9635;52.078;8.648;2023-06-01T19:49:20;100775.88;;;12.65;57.37
19005;BME280;9635;52.078;8.648;2023-06-01T19:54:25;100786.34;;;12.47;57.81
19005;BME280;9635;52.078;8.648;2023-06-01T19:59:28;100790.31;;;12.64;57.78
19005;BME280;9635;52.078;8.648;2023-06-01T20:04:33;100785.63;;;12.45;58.51
19005;BME280;9635;52.078;8.648;2023-06-01T20:09:36;100791.66;;;12.70;57.65
19005;BME280;9635;52.078;8.648;2023-06-01T20:14:39;100797.75;;;12.39;57.81
19005;BME280;9635;52.078;8.648;2023-06-01T20:19:43;100791.41;;;12.29;58.25
19005;BME280;9635;52.078;8.648;2023-06-01T20:24:46;100793.56;;;12.47;57.95
19005;BME280;9635;52.078;8.648;2023-06-01T20:29:49;100795.59;;;12.66;57.40
19005;BME280;9635;52.078;8.648;2023-06-01T20:34:53;100791.91;;;12.67;57.65
19005;BME280;9635;52.078;8.648;2023-06-01T20:39:56;100794.50;;;12.68;57.64
19005;BME280;9635;52.078;8.648;2023-06-01T20:44:59;100796.56;;;12.76;57.43
19005;BME280;9635;52.078;8.648;2023-06-01T20:50:06;100800.47;;;12.28;57.82
19005;BME280;9635;52.078;8.648;2023-06-01T20:55:09;100807.03;;;12.47;58.04
19005;BME280;9635;52.078;8.648;2023-06-01T21:00:13;100802.28;;;12.39;57.85
19005;BME280;9635;52.078;8.648;2023-06-01T21:05:18;100799.84;;;12.25;57.81
19005;BME280;9635;52.078;8.648;2023-06-01T21:10:20;100788.47;;;12.32;58.02
19005;BME280;9635;52.078;8.648;2023-06-01T21:15:23;100800.66;;;12.48;57.52
19005;BME280;9635;52.078;8.648;2023-06-01T21:20:28;100802.91;;;12.43;57.34
19005;BME280;9635;52.078;8.648;2023-06-01T21:25:31;100799.59;;;12.39;56.32
19005;BME280;9635;52.078;8.648;2023-06-01T21:30:38;100801.06;;;12.43;56.57
19005;BME280;9635;52.078;8.648;2023-06-01T21:35:42;100800.44;;;12.39;56.95
19005;BME280;9635;52.078;8.648;2023-06-01T21:40:46;100791.50;;;12.39;57.16
19005;BME280;9635;52.078;8.648;2023-06-01T21:45:51;100789.56;;;12.30;57.51
19005;BME280;9635;52.078;8.648;2023-06-01T21:50:55;100798.72;;;12.27;57.76
19005;BME280;9635;52.078;8.648;2023-06-01T21:55:58;100795.97;;;12.29;57.42
19005;BME280;9635;52.078;8.648;2023-06-01T22:01:01;100801.31;;;12.17;57.14
19005;BME280;9635;52.078;8.648;2023-06-01T22:06:06;100800.69;;;12.25;57.13
19005;BME280;9635;52.078;8.648;2023-06-01T22:11:09;100788.81;;;12.28;57.17
19005;BME280;9635;52.078;8.648;2023-06-01T22:16:12;100790.53;;;12.17;57.16
19005;BME280;9635;52.078;8.648;2023-06-01T22:21:16;100797.28;;;12.12;57.49
19005;BME280;9635;52.078;8.648;2023-06-01T22:26:22;100801.56;;;12.14;57.14
19005;BME280;9635;52.078;8.648;2023-06-01T22:31:24;100801.94;;;12.10;56.49
19005;BME280;9635;52.078;8.648;2023-06-01T22:36:29;100793.88;;;12.10;56.45
19005;BME280;9635;52.078;8.648;2023-06-01T22:41:32;100806.00;;;12.04;56.32
19005;BME280;9635;52.078;8.648;2023-06-01T22:46:35;100800.22;;;11.98;56.34
19005;BME280;9635;52.078;8.648;2023-06-01T22:51:39;100806.13;;;11.91;56.64
19005;BME280;9635;52.078;8.648;2023-06-01T22:56:43;100804.78;;;11.86;56.20
19005;BME280;9635;52.078;8.648;2023-06-01T23:01:45;100813.59;;;11.77;56.24
19005;BME280;9635;52.078;8.648;2023-06-01T23:06:50;100818.97;;;11.77;56.10
19005;BME280;9635;52.078;8.648;2023-06-01T23:11:55;100816.22;;;11.54;55.43
19005;BME280;9635;52.078;8.648;2023-06-01T23:16:58;100827.75;;;11.56;55.74
19005;BME280;9635;52.078;8.648;2023-06-01T23:22:06;100826.38;;;11.50;55.71
19005;BME280;9635;52.078;8.648;2023-06-01T23:27:10;100833.09;;;11.45;55.71
19005;BME280;9635;52.078;8.648;2023-06-01T23:32:12;100835.69;;;11.46;55.68
19005;BME280;9635;52.078;8.648;2023-06-01T23:37:17;100827.72;;;11.45;56.16
19005;BME280;9635;52.078;8.648;2023-06-01T23:42:20;100827.13;;;11.41;56.06
19005;BME280;9635;52.078;8.648;2023-06-01T23:47:23;100828.56;;;11.45;55.81
19005;BME280;9635;52.078;8.648;2023-06-01T23:52:27;100824.53;;;11.40;55.72
19005;BME280;9635;52.078;8.648;2023-06-01T23:57:30;100830.66;;;11.42;55.80
